createdAt,value
2019-02-15T00:00:56.260Z,3.90
2019-02-15T00:03:22.554Z,3.87
2019-02-15T00:05:48.887Z,3.60
2019-02-15T00:08:15.243Z,3.27
2019-02-15T00:10:41.542Z,3.70
2019-02-15T00:13:13.607Z,3.22
2019-02-15T00:15:36.034Z,3.50
2019-02-15T00:18:16.831Z,3.37
2019-02-15T00:20:47.797Z,3.30
2019-02-15T00:23:14.074Z,2.62
2019-02-15T00:25:40.366Z,2.35
2019-02-15T00:28:06.638Z,2.35
2019-02-15T00:30:32.930Z,2.83
2019-02-15T00:32:59.207Z,3.05
2019-02-15T00:35:25.517Z,2.47
2019-02-15T00:37:51.882Z,2.67
2019-02-15T00:40:18.211Z,2.92
2019-02-15T00:42:44.852Z,2.67
2019-02-15T00:45:13.360Z,2.85
2019-02-15T00:47:44.578Z,2.60
2019-02-15T00:50:18.304Z,2.92
2019-02-15T00:52:49.281Z,3.00
2019-02-15T00:55:20.970Z,2.62
2019-02-15T00:57:55.503Z,2.92
2019-02-15T01:00:40.638Z,2.87
2019-02-15T01:03:08.830Z,2.65
2019-02-15T01:05:40.403Z,2.67
2019-02-15T01:08:08.706Z,2.92
2019-02-15T01:10:36.936Z,3.05
2019-02-15T01:13:05.247Z,3.20
2019-02-15T01:15:31.510Z,2.92
2019-02-15T01:17:57.818Z,3.45
2019-02-15T01:20:24.182Z,3.27
2019-02-15T01:22:50.485Z,2.87
2019-02-15T01:25:16.954Z,2.98
2019-02-15T01:27:57.355Z,2.92
2019-02-15T01:30:28.682Z,3.15
2019-02-15T01:33:02.675Z,2.95
2019-02-15T01:35:33.694Z,2.98
2019-02-15T01:38:16.901Z,3.50
2019-02-15T01:40:48.057Z,2.85
2019-02-15T01:43:22.211Z,3.25
2019-02-15T01:45:50.391Z,3.50
2019-02-15T01:48:17.044Z,3.17
2019-02-15T01:50:43.683Z,3.55
2019-02-15T01:53:10.323Z,3.45
2019-02-15T01:55:36.639Z,3.77
2019-02-15T01:58:02.902Z,3.35
2019-02-15T02:00:31.131Z,2.90
2019-02-15T02:02:57.696Z,2.80
2019-02-15T02:05:23.995Z,3.15
2019-02-15T02:07:50.687Z,3.17
2019-02-15T02:10:16.978Z,2.47
2019-02-15T02:12:43.299Z,2.27
2019-02-15T02:15:10.004Z,2.35
2019-02-15T02:17:36.384Z,2.47
2019-02-15T02:20:05.169Z,2.27
2019-02-15T02:22:31.673Z,2.27
2019-02-15T02:24:57.943Z,2.50
2019-02-15T02:27:24.583Z,2.62
2019-02-15T02:29:50.863Z,2.77
2019-02-15T02:32:17.264Z,3.15
2019-02-15T02:34:43.539Z,2.90
2019-02-15T02:37:10.115Z,2.87
2019-02-15T02:39:36.387Z,3.00
2019-02-15T02:42:03.095Z,2.80
2019-02-15T02:44:29.391Z,2.90
2019-02-15T02:46:55.766Z,3.30
2019-02-15T02:49:22.160Z,3.10
2019-02-15T02:51:48.534Z,2.77
2019-02-15T02:54:14.826Z,3.02
2019-02-15T02:56:41.395Z,3.00
2019-02-15T02:59:07.879Z,3.25
2019-02-15T03:01:34.182Z,3.12
2019-02-15T03:04:00.582Z,2.77
2019-02-15T03:06:27.231Z,3.12
2019-02-15T03:08:55.036Z,3.15
2019-02-15T03:11:21.399Z,3.47
2019-02-15T03:13:49.199Z,3.45
2019-02-15T03:16:15.692Z,3.60
2019-02-15T03:18:42.376Z,2.90
2019-02-15T03:21:08.752Z,2.90
2019-02-15T03:23:35.133Z,2.95
2019-02-15T03:26:01.527Z,2.98
2019-02-15T03:28:27.914Z,3.25
2019-02-15T03:30:54.316Z,3.37
2019-02-15T03:33:20.981Z,3.50
2019-02-15T03:35:58.540Z,3.37
2019-02-15T03:38:36.164Z,3.27
2019-02-15T03:41:04.464Z,3.30
2019-02-15T03:43:31.943Z,3.20
2019-02-15T03:45:58.350Z,2.92
2019-02-15T03:48:24.625Z,2.52
2019-02-15T03:50:51.423Z,3.20
2019-02-15T03:53:17.705Z,2.90
2019-02-15T03:55:44.004Z,2.72
2019-02-15T03:58:10.274Z,2.70
2019-02-15T04:00:37.030Z,3.10
2019-02-15T04:03:03.306Z,2.77
2019-02-15T04:05:30.008Z,3.15
2019-02-15T04:07:56.280Z,2.67
2019-02-15T04:10:22.975Z,3.02
2019-02-15T04:12:50.347Z,2.80
2019-02-15T04:15:16.755Z,2.90
2019-02-15T04:17:43.056Z,3.25
2019-02-15T04:20:09.421Z,2.77
2019-02-15T04:22:35.724Z,3.15
2019-02-15T04:25:02.096Z,3.00
2019-02-15T04:27:28.490Z,3.50
2019-02-15T04:29:54.875Z,3.02
2019-02-15T04:32:21.267Z,3.45
2019-02-15T04:34:47.633Z,3.08
2019-02-15T04:37:13.935Z,3.40
2019-02-15T04:39:40.213Z,3.62
2019-02-15T04:42:06.587Z,2.70
2019-02-15T04:44:42.345Z,3.33
2019-02-15T04:47:01.083Z,3.35
2019-02-15T04:49:27.467Z,3.10
2019-02-15T04:51:53.740Z,2.95
2019-02-15T04:54:20.135Z,3.17
2019-02-15T04:56:46.406Z,2.70
2019-02-15T04:59:12.705Z,2.62
2019-02-15T05:01:39.015Z,2.70
2019-02-15T05:04:05.414Z,2.85
2019-02-15T05:06:31.985Z,2.67
2019-02-15T05:08:58.334Z,2.30
2019-02-15T05:11:24.636Z,2.52
2019-02-15T05:13:51.016Z,2.67
2019-02-15T05:16:17.445Z,2.90
2019-02-15T05:18:43.805Z,2.50
2019-02-15T05:21:10.106Z,2.55
2019-02-15T05:23:36.480Z,2.98
2019-02-15T05:26:03.226Z,3.02
2019-02-15T05:28:29.547Z,2.83
2019-02-15T05:30:55.852Z,2.42
2019-02-15T05:33:22.116Z,2.75
2019-02-15T05:35:48.546Z,2.80
2019-02-15T05:38:14.807Z,2.75
2019-02-15T05:40:41.411Z,3.20
2019-02-15T05:43:07.702Z,2.80
2019-02-15T05:45:33.986Z,2.62
2019-02-15T05:48:00.394Z,3.27
2019-02-15T05:50:26.662Z,2.83
2019-02-15T05:52:52.954Z,3.05
2019-02-15T05:55:19.507Z,3.17
2019-02-15T05:57:45.801Z,2.90
2019-02-15T06:00:12.100Z,3.25
2019-02-15T06:02:38.465Z,3.22
2019-02-15T06:05:07.153Z,2.77
2019-02-15T06:07:33.458Z,3.05
2019-02-15T06:09:59.764Z,3.80
2019-02-15T06:12:26.121Z,3.70
2019-02-15T06:14:52.540Z,3.98
2019-02-15T06:17:19.272Z,3.72
2019-02-15T06:19:45.859Z,3.15
2019-02-15T06:22:12.176Z,3.85
2019-02-15T06:24:38.538Z,4.70
2019-02-15T06:27:04.828Z,4.35
2019-02-15T06:29:31.204Z,3.47
2019-02-15T06:31:57.851Z,3.37
2019-02-15T06:34:26.030Z,3.25
2019-02-15T06:36:52.447Z,2.95
2019-02-15T06:39:18.714Z,2.83
2019-02-15T06:41:47.882Z,2.37
2019-02-15T06:44:15.075Z,2.52
2019-02-15T06:46:41.603Z,2.60
2019-02-15T06:49:08.066Z,3.00
2019-02-15T06:51:34.432Z,2.70
2019-02-15T06:54:02.286Z,3.12
2019-02-15T06:56:28.651Z,2.90
2019-02-15T06:59:06.135Z,2.92
2019-02-15T07:01:34.406Z,3.58
2019-02-15T07:04:08.711Z,2.90
2019-02-15T07:06:35.274Z,3.33
2019-02-15T07:09:02.014Z,3.40
2019-02-15T07:11:28.596Z,4.20
2019-02-15T07:13:55.170Z,5.00
2019-02-15T07:16:21.438Z,3.70
2019-02-15T07:18:47.734Z,3.67
2019-02-15T07:21:14.038Z,3.60
2019-02-15T07:23:40.426Z,3.20
2019-02-15T07:26:06.705Z,3.47
2019-02-15T07:28:33.135Z,3.25
2019-02-15T07:30:59.799Z,3.27
2019-02-15T07:33:26.091Z,3.62
2019-02-15T07:35:52.663Z,3.60
2019-02-15T07:38:19.464Z,3.05
2019-02-15T07:40:45.842Z,3.55
2019-02-15T07:43:12.235Z,3.08
2019-02-15T07:45:42.922Z,2.95
2019-02-15T07:48:06.803Z,3.25
2019-02-15T07:50:33.099Z,3.90
2019-02-15T07:52:59.525Z,4.15
2019-02-15T07:55:25.799Z,4.67
2019-02-15T07:57:52.214Z,4.40
2019-02-15T08:00:19.603Z,4.87
2019-02-15T08:02:46.191Z,4.40
2019-02-15T08:05:12.832Z,4.45
2019-02-15T08:07:39.215Z,4.40
2019-02-15T08:10:08.818Z,4.70
2019-02-15T08:12:35.511Z,7.75
2019-02-15T08:15:02.015Z,9.50
2019-02-15T08:17:28.387Z,12.35
2019-02-15T08:19:54.791Z,10.85
2019-02-15T08:22:22.720Z,9.15
2019-02-15T08:24:49.294Z,6.53
2019-02-15T08:27:15.573Z,5.30
2019-02-15T08:29:41.876Z,4.92
2019-02-15T08:32:08.142Z,5.42
2019-02-15T08:34:34.453Z,5.22
2019-02-15T08:37:00.814Z,6.60
2019-02-15T08:39:27.110Z,7.37
2019-02-15T08:42:01.399Z,5.92
2019-02-15T08:44:22.211Z,5.33
2019-02-15T08:46:48.596Z,10.65
2019-02-15T08:49:14.897Z,14.73
2019-02-15T08:51:41.170Z,8.70
2019-02-15T08:54:07.559Z,9.28
2019-02-15T08:56:34.273Z,7.50
2019-02-15T08:59:01.985Z,7.40
2019-02-15T09:01:28.987Z,5.00
2019-02-15T09:03:55.250Z,4.73
2019-02-15T09:06:21.671Z,4.80
2019-02-15T09:09:07.898Z,12.57
2019-02-15T09:11:34.560Z,13.50
2019-02-15T09:14:01.205Z,9.60
2019-02-15T09:16:28.351Z,8.33
2019-02-15T09:18:54.624Z,6.33
2019-02-15T09:21:21.026Z,11.83
2019-02-15T09:23:47.755Z,9.97
2019-02-15T09:26:18.167Z,7.87
2019-02-15T09:28:44.174Z,6.30
2019-02-15T09:31:10.538Z,5.60
2019-02-15T09:33:37.931Z,6.20
2019-02-15T09:36:04.349Z,6.17
2019-02-15T09:38:31.814Z,6.80
2019-02-15T09:40:58.087Z,6.00
2019-02-15T09:43:24.467Z,6.17
2019-02-15T09:45:50.731Z,5.93
2019-02-15T09:48:17.145Z,5.50
2019-02-15T09:50:43.511Z,5.77
2019-02-15T09:53:10.912Z,5.90
2019-02-15T09:55:37.175Z,6.57
2019-02-15T09:58:03.514Z,6.33
2019-02-15T10:00:29.794Z,7.03
2019-02-15T10:02:56.429Z,6.60
2019-02-15T10:05:23.059Z,6.90
2019-02-15T10:07:49.795Z,7.80
2019-02-15T10:10:16.086Z,8.20
2019-02-15T10:12:42.378Z,8.50
2019-02-15T10:15:09.880Z,8.10
2019-02-15T10:17:37.241Z,7.10
2019-02-15T10:20:04.843Z,7.70
2019-02-15T10:22:31.215Z,7.17
2019-02-15T10:24:57.797Z,6.87
2019-02-15T10:27:24.057Z,6.95
2019-02-15T10:29:50.666Z,6.67
2019-02-15T10:32:16.931Z,6.58
2019-02-15T10:34:43.217Z,6.00
2019-02-15T10:37:10.609Z,6.05
2019-02-15T10:39:37.007Z,13.35
2019-02-15T10:42:03.270Z,20.00
2019-02-15T10:44:29.571Z,9.90
2019-02-15T10:46:55.865Z,8.50
2019-02-15T10:49:22.387Z,6.67
2019-02-15T10:51:48.763Z,6.40
2019-02-15T10:54:15.329Z,6.25
2019-02-15T10:56:41.762Z,6.47
2019-02-15T10:59:11.130Z,5.95
2019-02-15T11:01:37.498Z,5.78
2019-02-15T11:04:03.770Z,5.60
2019-02-15T11:06:30.176Z,7.10
2019-02-15T11:08:56.547Z,6.08
2019-02-15T11:11:22.847Z,6.42
2019-02-15T11:13:49.136Z,5.62
2019-02-15T11:16:15.420Z,5.45
2019-02-15T11:18:41.714Z,5.22
2019-02-15T11:21:08.327Z,4.78
2019-02-15T11:23:35.001Z,4.42
2019-02-15T11:26:01.731Z,4.47
2019-02-15T11:28:28.122Z,5.55
2019-02-15T11:30:54.878Z,4.95
2019-02-15T11:33:21.176Z,4.50
2019-02-15T11:35:47.451Z,14.63
2019-02-15T11:38:13.746Z,49.95
2019-02-15T11:40:41.865Z,23.98
2019-02-15T11:43:08.154Z,15.65
2019-02-15T11:45:34.454Z,7.83
2019-02-15T11:48:01.158Z,6.35
2019-02-15T11:50:27.445Z,5.37
2019-02-15T11:52:53.715Z,5.40
2019-02-15T11:55:20.002Z,5.50
2019-02-15T11:57:46.298Z,5.58
2019-02-15T12:00:17.802Z,4.15
2019-02-15T12:02:44.196Z,4.30
2019-02-15T12:05:10.682Z,4.30
2019-02-15T12:07:36.959Z,3.40
2019-02-15T12:10:06.406Z,3.90
2019-02-15T12:12:33.674Z,3.75
2019-02-15T12:15:00.327Z,4.00
2019-02-15T12:17:26.603Z,3.95
2019-02-15T12:19:54.885Z,3.87
2019-02-15T12:22:21.185Z,3.83
2019-02-15T12:24:57.486Z,3.07
2019-02-15T12:27:26.002Z,3.30
2019-02-15T12:29:52.450Z,3.60
2019-02-15T12:32:18.754Z,2.50
2019-02-15T12:34:45.163Z,2.90
2019-02-15T12:37:12.664Z,2.47
2019-02-15T12:39:39.030Z,2.37
2019-02-15T12:42:07.257Z,2.53
2019-02-15T12:44:33.628Z,4.20
2019-02-15T12:46:59.913Z,1.90
2019-02-15T12:49:28.397Z,1.40
2019-02-15T12:51:54.692Z,1.90
2019-02-15T12:54:20.954Z,1.00
2019-02-15T12:56:47.295Z,0.87
2019-02-15T12:59:13.667Z,1.47
2019-02-15T13:01:39.940Z,0.60
2019-02-15T13:04:06.234Z,2.93
2019-02-15T13:06:32.645Z,1.30
2019-02-15T13:08:58.948Z,1.40
2019-02-15T13:11:25.679Z,1.80
2019-02-15T13:13:52.066Z,0.90
2019-02-15T13:16:18.335Z,0.70
2019-02-15T13:18:44.624Z,1.47
2019-02-15T13:21:10.953Z,0.70
2019-02-15T13:23:37.444Z,0.63
2019-02-15T13:26:08.416Z,9.57
2019-02-15T13:28:33.302Z,1.30
2019-02-15T13:30:59.666Z,0.70
2019-02-15T13:33:25.963Z,0.70
2019-02-15T13:35:52.247Z,0.70
2019-02-15T13:38:18.679Z,0.40
2019-02-15T13:40:46.375Z,2.20
2019-02-15T13:43:12.754Z,11.63
2019-02-15T13:45:39.033Z,7.73
2019-02-15T13:48:05.410Z,2.50
2019-02-15T13:50:31.702Z,1.00
2019-02-15T13:52:59.902Z,0.63
2019-02-15T13:55:26.313Z,0.43
2019-02-15T13:57:52.767Z,0.43
2019-02-15T14:00:19.387Z,0.40
2019-02-15T14:02:45.762Z,0.60
2019-02-15T14:05:13.183Z,0.40
2019-02-15T14:07:39.467Z,0.70
2019-02-15T14:10:08.278Z,0.50
2019-02-15T14:12:34.593Z,0.47
2019-02-15T14:15:01.008Z,0.40
2019-02-15T14:17:27.573Z,0.50
2019-02-15T14:19:53.846Z,0.50
2019-02-15T14:22:20.180Z,0.60
2019-02-15T14:24:46.631Z,0.70
2019-02-15T14:27:13.018Z,0.50
2019-02-15T14:29:39.282Z,0.80
2019-02-15T14:32:05.863Z,0.57
2019-02-15T14:34:32.127Z,0.43
2019-02-15T14:36:58.419Z,0.70
2019-02-15T14:39:24.688Z,0.63
2019-02-15T14:41:51.496Z,0.80
2019-02-15T14:44:17.883Z,0.50
2019-02-15T14:46:44.521Z,0.53
2019-02-15T14:49:11.227Z,0.60
2019-02-15T14:51:37.536Z,0.77
2019-02-15T14:54:03.847Z,0.50
2019-02-15T14:56:30.141Z,0.67
2019-02-15T14:58:56.539Z,0.70
2019-02-15T15:01:22.802Z,0.40
2019-02-15T15:03:49.399Z,0.60
2019-02-15T15:06:15.915Z,0.50
2019-02-15T15:08:42.299Z,0.70
2019-02-15T15:11:08.577Z,0.80
2019-02-15T15:13:34.978Z,0.50
2019-02-15T15:16:02.042Z,0.50
2019-02-15T15:18:28.441Z,0.43
2019-02-15T15:20:55.114Z,0.57
2019-02-15T15:23:21.407Z,0.40
2019-02-15T15:25:47.688Z,0.60
2019-02-15T15:28:13.983Z,0.40
2019-02-15T15:30:40.252Z,0.40
2019-02-15T15:33:06.637Z,0.60
2019-02-15T15:35:32.911Z,0.50
2019-02-15T15:37:59.295Z,2.27
2019-02-15T15:40:27.513Z,2.03
2019-02-15T15:42:55.019Z,1.80
2019-02-15T15:45:21.335Z,0.77
2019-02-15T15:47:47.633Z,1.33
2019-02-15T15:50:13.905Z,1.30
2019-02-15T15:52:40.270Z,0.60
2019-02-15T15:55:11.236Z,1.30
2019-02-15T15:57:37.838Z,6.10
2019-02-15T16:00:07.093Z,4.97
2019-02-15T16:02:33.355Z,3.10
2019-02-15T16:04:59.655Z,1.30
2019-02-15T16:07:25.918Z,0.90
2019-02-15T16:09:52.239Z,1.13
2019-02-15T16:12:18.602Z,0.73
2019-02-15T16:14:44.909Z,0.80
2019-02-15T16:17:11.178Z,0.70
2019-02-15T16:19:40.598Z,1.37
2019-02-15T16:22:06.144Z,1.20
2019-02-15T16:24:32.661Z,1.83
2019-02-15T16:26:58.957Z,2.77
2019-02-15T16:29:25.440Z,1.93
2019-02-15T16:31:51.806Z,1.70
2019-02-15T16:34:18.256Z,1.70
2019-02-15T16:36:47.675Z,1.53
2019-02-15T16:39:13.938Z,1.87
2019-02-15T16:41:40.238Z,2.03
2019-02-15T16:44:06.602Z,2.03
2019-02-15T16:46:32.915Z,2.33
2019-02-15T16:48:59.319Z,2.53
2019-02-15T16:51:25.671Z,2.10
2019-02-15T16:53:51.984Z,1.80
2019-02-15T16:56:18.719Z,1.83
2019-02-15T16:58:45.001Z,4.23
2019-02-15T17:01:11.559Z,11.97
2019-02-15T17:03:37.845Z,4.40
2019-02-15T17:06:04.118Z,4.10
2019-02-15T17:08:30.414Z,2.50
2019-02-15T17:10:56.683Z,2.73
2019-02-15T17:13:22.959Z,2.43
2019-02-15T17:15:49.260Z,1.83
2019-02-15T17:18:15.647Z,2.37
2019-02-15T17:20:41.938Z,1.97
2019-02-15T17:23:08.197Z,2.10
2019-02-15T17:25:34.582Z,2.03
2019-02-15T17:28:01.226Z,2.10
2019-02-15T17:30:27.520Z,2.00
2019-02-15T17:32:54.091Z,2.30
2019-02-15T17:35:20.383Z,2.17
2019-02-15T17:37:46.642Z,2.43
2019-02-15T17:40:14.337Z,2.13
2019-02-15T17:42:40.702Z,2.07
2019-02-15T17:45:09.441Z,2.10
2019-02-15T17:47:35.987Z,1.97
2019-02-15T17:50:02.803Z,2.60
2019-02-15T17:52:29.560Z,3.60
2019-02-15T17:54:55.915Z,4.00
2019-02-15T17:57:22.518Z,3.67
2019-02-15T17:59:48.870Z,2.77
2019-02-15T18:02:15.163Z,2.43
2019-02-15T18:04:41.431Z,2.43
2019-02-15T18:07:08.062Z,2.60
2019-02-15T18:09:34.459Z,2.80
2019-02-15T18:12:01.062Z,2.83
2019-02-15T18:14:27.344Z,2.63
2019-02-15T18:16:53.727Z,2.33
2019-02-15T18:19:20.019Z,2.10
2019-02-15T18:21:46.432Z,4.93
2019-02-15T18:24:12.755Z,5.30
2019-02-15T18:26:39.142Z,5.33
2019-02-15T18:29:05.864Z,5.20
2019-02-15T18:31:32.622Z,5.07
2019-02-15T18:33:59.227Z,4.50
2019-02-15T18:36:25.597Z,3.57
2019-02-15T18:38:51.922Z,2.37
2019-02-15T18:41:18.634Z,2.77
2019-02-15T18:43:44.916Z,2.60
2019-02-15T18:46:11.216Z,2.57
2019-02-15T18:48:39.438Z,2.63
2019-02-15T18:51:06.226Z,2.37
2019-02-15T18:53:32.528Z,2.47
2019-02-15T18:55:58.818Z,2.37
2019-02-15T18:58:25.138Z,2.40
2019-02-15T19:00:51.440Z,2.00
2019-02-15T19:03:17.723Z,2.23
2019-02-15T19:05:44.079Z,2.17
2019-02-15T19:08:11.567Z,2.43
2019-02-15T19:10:38.083Z,2.63
2019-02-15T19:13:04.505Z,2.80
2019-02-15T19:15:30.781Z,2.57
2019-02-15T19:17:57.174Z,2.23
2019-02-15T19:20:23.549Z,2.10
2019-02-15T19:22:50.157Z,2.30
2019-02-15T19:25:18.473Z,2.30
2019-02-15T19:27:44.778Z,2.47
2019-02-15T19:32:54.159Z,6.40
2019-02-15T19:35:20.478Z,7.57
2019-02-15T19:37:48.750Z,8.27
2019-02-15T19:40:17.375Z,7.50
2019-02-15T19:42:45.077Z,6.87
2019-02-15T19:45:12.939Z,7.33
2019-02-15T19:47:39.328Z,7.17
2019-02-15T19:50:08.919Z,6.23
2019-02-15T19:52:35.219Z,7.40
2019-02-15T19:55:23.518Z,5.40
2019-02-15T19:57:50.190Z,5.10
2019-02-15T20:00:17.798Z,5.37
2019-02-15T20:02:44.514Z,5.13
2019-02-15T20:05:11.245Z,3.67
2019-02-15T20:07:38.713Z,3.57
2019-02-15T20:10:10.490Z,4.17
2019-02-15T20:12:37.098Z,5.90
2019-02-15T20:15:16.850Z,7.43
2019-02-15T20:17:43.261Z,7.13
2019-02-15T20:20:11.472Z,10.80
2019-02-15T20:22:37.878Z,8.90
2019-02-15T20:25:06.488Z,7.30
2019-02-15T20:27:33.130Z,5.87
2019-02-15T20:29:59.827Z,4.20
2019-02-15T20:32:28.278Z,3.83
2019-02-15T20:34:54.611Z,4.20
2019-02-15T20:37:20.928Z,4.30
2019-02-15T20:39:47.623Z,4.33
2019-02-15T20:42:15.127Z,4.77
2019-02-15T20:44:41.439Z,4.93
2019-02-15T20:47:08.144Z,13.87
2019-02-15T20:49:37.119Z,8.40
2019-02-15T20:52:03.758Z,5.00
2019-02-15T20:54:30.048Z,4.20
2019-02-15T20:56:56.459Z,6.70
2019-02-15T20:59:22.757Z,7.40
2019-02-15T21:01:49.523Z,6.10
2019-02-15T21:04:15.818Z,5.10
2019-02-15T21:06:42.466Z,4.83
2019-02-15T21:09:08.905Z,4.57
2019-02-15T21:11:35.309Z,4.20
2019-02-15T21:14:01.697Z,4.80
2019-02-15T21:16:28.437Z,4.57
2019-02-15T21:18:56.762Z,4.70
2019-02-15T21:21:23.254Z,3.90
2019-02-15T21:23:49.807Z,5.10
2019-02-15T21:26:16.243Z,5.97
2019-02-15T21:28:42.515Z,5.17
2019-02-15T21:31:08.829Z,5.73
2019-02-15T21:33:35.264Z,5.27
2019-02-15T21:36:01.727Z,5.43
2019-02-15T21:38:28.485Z,6.27
2019-02-15T21:40:55.207Z,5.57
2019-02-15T21:43:21.541Z,4.33
2019-02-15T21:45:49.000Z,4.77
2019-02-15T21:48:15.479Z,4.00
2019-02-15T21:50:42.073Z,4.17
2019-02-15T21:53:08.372Z,4.30
2019-02-15T21:55:34.859Z,4.10
2019-02-15T21:58:01.876Z,5.27
2019-02-15T22:00:29.478Z,5.87
2019-02-15T22:02:55.796Z,6.07
2019-02-15T22:05:22.153Z,5.67
2019-02-15T22:07:48.454Z,6.23
2019-02-15T22:10:14.739Z,6.20
2019-02-15T22:12:42.351Z,6.03
2019-02-15T22:15:14.763Z,4.67
2019-02-15T22:17:41.155Z,4.90
2019-02-15T22:20:13.035Z,4.37
2019-02-15T22:22:39.429Z,4.70
2019-02-15T22:25:06.704Z,5.17
2019-02-15T22:27:34.902Z,4.87
2019-02-15T22:30:04.570Z,5.13
2019-02-15T22:32:31.449Z,5.57
2019-02-15T22:34:57.758Z,5.03
2019-02-15T22:37:24.118Z,5.50
2019-02-15T22:39:50.395Z,5.13
2019-02-15T22:42:16.725Z,4.60
2019-02-15T22:44:42.991Z,4.20
2019-02-15T22:47:09.278Z,4.60
2019-02-15T22:49:43.145Z,4.73
2019-02-15T22:52:04.074Z,4.83
2019-02-15T22:54:30.749Z,4.37
2019-02-15T22:56:57.022Z,4.70
2019-02-15T22:59:23.591Z,4.93
2019-02-15T23:01:49.916Z,4.47
2019-02-15T23:04:16.335Z,5.30
2019-02-15T23:06:45.315Z,5.87
2019-02-15T23:09:23.096Z,5.57
2019-02-15T23:11:49.383Z,5.10
2019-02-15T23:14:15.682Z,5.37
2019-02-15T23:16:43.358Z,5.50
2019-02-15T23:19:09.659Z,5.60
2019-02-15T23:21:35.948Z,5.28
2019-02-15T23:24:04.577Z,4.45
2019-02-15T23:26:30.898Z,4.97
2019-02-15T23:28:57.271Z,4.27
2019-02-15T23:31:23.588Z,5.05
2019-02-15T23:33:50.140Z,5.47
2019-02-15T23:36:16.551Z,5.22
2019-02-15T23:38:43.271Z,4.75
2019-02-15T23:41:09.597Z,5.13
2019-02-15T23:43:36.343Z,5.40
2019-02-15T23:46:02.711Z,3.67
2019-02-15T23:48:29.011Z,4.58
2019-02-15T23:50:55.379Z,4.25
2019-02-15T23:53:22.186Z,4.03
2019-02-15T23:55:49.679Z,3.75
2019-02-15T23:58:16.379Z,4.08
